Time;durP1;ratioP1;P1;durP2;ratioP2;P2;SDS_P1;SDS_P2;PMS_P1;PMS_P2;Temp;Humidity;BMP_temperature;BMP_pressure;BME280_temperature;BME280_humidity;BME280_pressure;Samples;Min_cycle;Max_cycle;Signal;HPM_P1;HPM_P2
2023/01/23 00:00:14;;;;;;;18.67;11.80;;;4.40;67.60;3.80;97384.00;;;;5048625;28;20464;-79
2023/01/23 00:02:42;;;;;;;17.93;12.53;;;4.40;67.60;3.80;97392.00;;;;5034041;28;20463;-78
2023/01/23 00:05:11;;;;;;;17.10;12.33;;;4.30;67.60;3.70;97390.00;;;;5030622;28;20439;-79
2023/01/23 00:07:40;;;;;;;17.07;11.77;;;4.30;67.70;3.70;97380.00;;;;5034258;28;20447;-78
2023/01/23 00:10:15;;;;;;;15.27;11.20;;;4.20;67.70;3.60;97375.00;;;;5033220;28;21008;-77
2023/01/23 00:12:43;;;;;;;16.10;11.40;;;4.20;67.70;3.60;97384.00;;;;5027580;28;20463;-78
2023/01/23 00:15:14;;;;;;;15.13;11.07;;;4.10;67.70;3.50;97388.00;;;;5031765;28;20444;-77
2023/01/23 00:17:44;;;;;;;15.70;11.13;;;4.10;67.80;3.50;97383.00;;;;5031099;28;20530;-79
2023/01/23 00:20:14;;;;;;;14.20;10.33;;;4.10;68.00;3.50;97390.00;;;;5032856;28;20443;-78
2023/01/23 00:22:43;;;;;;;17.63;12.53;;;4.00;67.90;3.50;97393.00;;;;5032048;28;20447;-78
2023/01/23 00:25:16;;;;;;;16.80;11.57;;;4.00;67.90;3.40;97397.00;;;;5032157;28;20448;-79
2023/01/23 00:27:45;;;;;;;15.90;11.10;;;4.00;67.90;3.40;97405.00;;;;5030242;28;20436;-79
2023/01/23 00:30:22;;;;;;;16.20;11.20;;;3.90;67.80;3.40;97401.00;;;;5026107;28;20472;-77
2023/01/23 00:32:49;;;;;;;16.50;11.93;;;3.90;67.80;3.30;97392.00;;;;5024042;28;20455;-78
2023/01/23 00:35:18;;;;;;;15.60;11.17;;;3.90;68.00;3.30;97396.00;;;;5029905;28;20525;-78
2023/01/23 00:37:45;;;;;;;15.50;11.53;;;3.80;68.10;3.30;97397.00;;;;5018278;28;20538;-77
2023/01/23 00:40:13;;;;;;;15.30;11.87;;;3.80;68.20;3.30;97396.00;;;;5032759;28;20440;-78
2023/01/23 00:42:40;;;;;;;15.27;11.00;;;3.80;68.40;3.30;97404.00;;;;5034799;28;20517;-79
2023/01/23 00:45:27;;;;;;;16.50;12.07;;;3.80;68.50;3.30;97405.00;;;;5037133;28;20940;-78
2023/01/23 00:48:04;;;;;;;15.70;11.53;;;3.80;68.70;3.30;97404.00;;;;5020883;28;20443;-77
2023/01/23 00:50:55;;;;;;;18.43;12.90;;;3.80;68.80;3.30;97412.00;;;;5036251;28;20541;-78
2023/01/23 00:53:23;;;;;;;17.20;12.23;;;3.80;69.20;3.40;97411.00;;;;5017749;28;20461;-79
2023/01/23 00:55:50;;;;;;;17.27;12.43;;;3.80;69.10;3.40;97413.00;;;;5037419;28;20931;-79
2023/01/23 00:58:18;;;;;;;18.10;12.10;;;3.80;69.30;3.40;97412.00;;;;5033931;28;20868;-78
2023/01/23 01:00:45;;;;;;;18.07;12.47;;;3.80;69.40;3.40;97418.00;;;;5032425;28;20610;-76
2023/01/23 01:03:19;;;;;;;17.40;12.33;;;3.80;69.60;3.50;97420.00;;;;5035901;28;20879;-78
2023/01/23 01:06:02;;;;;;;20.40;13.80;;;3.80;69.60;3.50;97420.00;;;;5030189;28;20900;-76
2023/01/23 01:08:42;;;;;;;20.60;13.63;;;3.90;69.60;3.50;97416.00;;;;5024153;28;20802;-77
2023/01/23 01:11:11;;;;;;;18.67;12.63;;;3.90;69.60;3.50;97429.00;;;;5034025;28;20499;-77
2023/01/23 01:13:49;;;;;;;19.13;12.37;;;3.90;69.50;3.50;97426.00;;;;5046428;28;20476;-78
2023/01/23 01:16:18;;;;;;;20.97;13.60;;;3.90;69.40;3.50;97424.00;;;;5032978;28;20456;-77
2023/01/23 01:18:49;;;;;;;17.97;12.70;;;3.90;69.40;3.50;97432.00;;;;5026375;28;20500;-77
2023/01/23 01:21:39;;;;;;;18.37;12.57;;;3.90;69.40;3.50;97431.00;;;;5031492;28;20845;-77
2023/01/23 01:24:12;;;;;;;17.07;10.60;;;4.00;69.60;3.50;97429.00;;;;5022488;28;20502;-77
2023/01/23 01:26:57;;;;;;;15.43;11.23;;;4.00;69.50;3.50;97429.00;;;;5029894;28;20555;-77
2023/01/23 01:29:35;;;;;;;15.33;11.30;;;3.90;69.40;3.50;97431.00;;;;5035091;28;20459;-77
2023/01/23 01:32:11;;;;;;;14.63;10.07;;;3.90;69.20;3.50;97419.00;;;;5031627;28;22149;-77
2023/01/23 01:34:43;;;;;;;14.40;11.13;;;3.90;69.30;3.60;97423.00;;;;5018076;28;20491;-76
2023/01/23 01:37:21;;;;;;;17.33;12.63;;;4.00;69.60;3.60;97418.00;;;;5031615;28;20514;-77
2023/01/23 01:40:02;;;;;;;18.20;12.93;;;3.90;69.60;3.60;97425.00;;;;5030794;28;20463;-76
2023/01/23 01:42:29;;;;;;;16.97;12.17;;;4.00;69.70;3.60;97426.00;;;;5031911;28;20445;-77
2023/01/23 01:45:01;;;;;;;18.27;12.80;;;4.00;69.70;3.60;97425.00;;;;5024836;28;20504;-77
2023/01/23 01:47:28;;;;;;;19.00;12.73;;;4.00;69.60;3.60;97427.00;;;;5032788;28;21107;-77
2023/01/23 01:50:13;;;;;;;16.87;11.47;;;4.00;69.60;3.60;97422.00;;;;5032462;28;20529;-77
2023/01/23 01:52:47;;;;;;;15.87;10.30;;;4.00;69.60;3.60;97416.00;;;;5031459;28;20447;-76
2023/01/23 01:55:31;;;;;;;16.57;11.27;;;4.10;69.60;3.70;97415.00;;;;5014985;28;20421;-77
2023/01/23 01:58:06;;;;;;;16.90;12.27;;;4.10;69.60;3.70;97413.00;;;;5029981;28;20425;-77
2023/01/23 02:00:39;;;;;;;15.30;11.03;;;4.10;69.70;3.70;97407.00;;;;5029241;28;20471;-77
2023/01/23 02:03:25;;;;;;;15.03;11.37;;;4.10;69.60;3.60;97412.00;;;;5032186;28;20510;-77
2023/01/23 02:06:02;;;;;;;17.90;11.80;;;4.10;69.40;3.60;97412.00;;;;5030790;28;20979;-77
2023/01/23 02:09:20;;;;;;;19.33;12.87;;;4.10;69.20;3.50;97409.00;;;;5025108;28;20447;-77
2023/01/23 02:11:51;;;;;;;17.40;12.33;;;4.10;69.20;3.50;97401.00;;;;5027273;28;20538;-76
2023/01/23 02:14:24;;;;;;;22.20;14.47;;;4.00;69.00;3.50;97392.00;;;;5016472;28;21208;-77
2023/01/23 02:16:54;;;;;;;21.27;13.40;;;4.00;69.00;3.50;97409.00;;;;5023335;28;20440;-75
2023/01/23 02:19:56;;;;;;;17.07;12.37;;;4.00;69.10;3.50;97399.00;;;;5027071;28;21055;-77
2023/01/23 02:23:00;;;;;;;17.20;12.20;;;4.00;69.10;3.40;97396.00;;;;5020734;28;20523;-76
2023/01/23 02:25:46;;;;;;;17.23;11.53;;;4.00;68.90;3.40;97391.00;;;;5021558;28;20472;-77
2023/01/23 02:28:29;;;;;;;18.17;12.80;;;3.90;68.90;3.40;97392.00;;;;5026353;28;21148;-77
2023/01/23 02:31:18;;;;;;;18.83;11.53;;;3.90;69.00;3.40;97391.00;;;;5023744;28;20480;-77
2023/01/23 02:34:15;;;;;;;17.27;11.40;;;3.90;69.00;3.40;97393.00;;;;5002574;28;20467;-77
2023/01/23 02:36:50;;;;;;;16.53;12.10;;;3.90;69.00;3.40;97398.00;;;;5027661;28;20891;-77
2023/01/23 02:39:26;;;;;;;17.77;12.53;;;3.90;69.00;3.40;97391.00;;;;5019660;28;20493;-77
2023/01/23 02:41:55;;;;;;;16.70;11.97;;;3.90;69.20;3.40;97396.00;;;;5030981;28;20892;-78
2023/01/23 02:44:26;;;;;;;19.37;12.97;;;3.80;69.40;3.40;97399.00;;;;5032016;28;20464;-77
2023/01/23 02:46:56;;;;;;;17.20;11.77;;;3.80;69.60;3.40;97402.00;;;;5029188;28;20952;-77
2023/01/23 02:49:36;;;;;;;18.37;11.97;;;3.80;69.50;3.40;97403.00;;;;5031794;28;20446;-77
2023/01/23 02:52:39;;;;;;;18.93;12.43;;;3.80;69.40;3.40;97398.00;;;;5026881;28;20488;-77
2023/01/23 02:55:28;;;;;;;15.80;11.00;;;3.90;69.50;3.40;97408.00;;;;5023081;28;20459;-77
2023/01/23 03:00:49;;;;;;;17.83;11.63;;;3.80;69.40;3.40;97398.00;;;;5029468;28;20475;-78
2023/01/23 03:03:29;;;;;;;17.70;11.30;;;3.90;69.70;3.50;97396.00;;;;5034442;28;20488;-77
2023/01/23 03:06:02;;;;;;;18.27;11.03;;;3.90;69.90;3.50;97395.00;;;;5020055;28;20444;-78
2023/01/23 03:08:47;;;;;;;16.80;11.50;;;3.90;70.10;3.50;97404.00;;;;5027319;28;20532;-77
2023/01/23 03:11:20;;;;;;;17.17;11.70;;;3.90;70.10;3.50;97397.00;;;;5030702;28;21107;-77
2023/01/23 03:13:48;;;;;;;16.97;11.60;;;3.90;69.70;3.50;97405.00;;;;5029058;28;20490;-78
2023/01/23 03:16:31;;;;;;;16.90;11.53;;;3.90;69.50;3.50;97408.00;;;;5020897;28;20432;-78
2023/01/23 03:19:03;;;;;;;17.03;11.30;;;3.90;69.70;3.50;97411.00;;;;5018202;28;20936;-78
2023/01/23 03:21:35;;;;;;;15.50;11.30;;;3.90;69.80;3.50;97413.00;;;;5015378;28;20480;-77
2023/01/23 03:24:10;;;;;;;16.90;11.73;;;3.90;70.00;3.60;97409.00;;;;5031855;28;20517;-78
2023/01/23 03:26:42;;;;;;;14.77;10.90;;;4.00;70.20;3.60;97412.00;;;;5024833;28;20544;-77
2023/01/23 03:32:04;;;;;;;13.70;10.23;;;4.00;70.30;3.60;97412.00;;;;5025687;28;20478;-79
2023/01/23 03:34:41;;;;;;;17.20;12.00;;;4.00;70.30;3.70;97414.00;;;;5023773;28;20452;-79
2023/01/23 03:37:12;;;;;;;15.20;10.77;;;4.10;70.30;3.70;97415.00;;;;5023853;28;20451;-80
2023/01/23 03:42:34;;;;;;;17.03;11.53;;;4.10;70.20;3.70;97412.00;;;;5031977;28;20458;-79
2023/01/23 03:45:08;;;;;;;16.73;11.70;;;4.10;70.30;3.70;97413.00;;;;5016645;28;21101;-79
2023/01/23 03:48:03;;;;;;;15.50;10.43;;;4.10;70.20;3.80;97407.00;;;;5024488;28;20448;-79
2023/01/23 03:50:35;;;;;;;14.43;10.87;;;4.20;70.20;3.80;97412.00;;;;5026092;28;20510;-79
2023/01/23 03:53:09;;;;;;;15.13;11.73;;;4.20;70.10;3.80;97405.00;;;;5022868;28;21151;-79
2023/01/23 03:55:43;;;;;;;16.07;11.43;;;4.20;70.00;3.80;97407.00;;;;5026843;28;20444;-78
2023/01/23 03:58:25;;;;;;;16.87;12.20;;;4.20;69.90;3.90;97408.00;;;;5028948;28;20491;-79
2023/01/23 04:01:02;;;;;;;18.07;12.50;;;4.30;70.10;3.90;97412.00;;;;5014947;28;21028;-81
2023/01/23 04:03:42;;;;;;;15.00;11.30;;;4.20;70.10;3.90;97420.00;;;;5029216;28;20829;-79
2023/01/23 04:06:09;;;;;;;15.37;11.60;;;4.30;70.00;3.90;97419.00;;;;5029639;28;20452;-80
2023/01/23 04:08:36;;;;;;;16.30;12.57;;;4.30;70.00;3.90;97416.00;;;;5035289;28;20468;-79
2023/01/23 04:11:06;;;;;;;16.87;11.80;;;4.30;70.10;3.90;97412.00;;;;5033868;28;20566;-79
2023/01/23 04:13:41;;;;;;;17.67;13.00;;;4.30;70.20;4.00;97421.00;;;;5032546;28;20463;-79
2023/01/23 04:16:08;;;;;;;18.40;11.83;;;4.40;70.30;4.00;97427.00;;;;5033363;28;20452;-80
2023/01/23 04:18:37;;;;;;;17.43;12.37;;;4.40;70.20;4.00;97437.00;;;;5039297;28;20518;-79
2023/01/23 04:21:05;;;;;;;16.23;11.63;;;4.40;70.30;4.00;97432.00;;;;5034856;28;20492;-80
2023/01/23 04:23:32;;;;;;;16.10;11.53;;;4.40;70.00;4.00;97433.00;;;;5033852;28;20468;-79
2023/01/23 04:26:07;;;;;;;15.20;11.73;;;4.40;69.60;4.00;97437.00;;;;5030622;28;20498;-79
2023/01/23 04:28:34;;;;;;;17.37;11.43;;;4.40;69.50;4.00;97427.00;;;;5035503;28;20434;-79
2023/01/23 04:31:01;;;;;;;17.57;11.40;;;4.40;69.40;4.00;97428.00;;;;5035036;28;20912;-80
2023/01/23 04:33:28;;;;;;;16.40;11.57;;;4.40;69.30;4.00;97434.00;;;;5034010;28;20471;-79
2023/01/23 04:36:00;;;;;;;17.17;10.97;;;4.40;69.30;4.00;97423.00;;;;5019600;28;20506;-80
2023/01/23 04:38:30;;;;;;;18.80;11.20;;;4.40;69.20;4.00;97418.00;;;;5035323;28;20485;-78
2023/01/23 04:40:57;;;;;;;14.10;10.20;;;4.40;69.20;4.00;97425.00;;;;5035975;28;20647;-80
2023/01/23 04:43:25;;;;;;;18.80;11.40;;;4.40;69.20;4.00;97435.00;;;;5035145;28;20432;-80
2023/01/23 04:45:54;;;;;;;16.60;12.00;;;4.40;69.20;4.00;97431.00;;;;5025939;28;21229;-79
2023/01/23 04:48:31;;;;;;;17.30;12.63;;;4.40;69.40;4.00;97423.00;;;;5026093;28;20494;-80
2023/01/23 04:51:10;;;;;;;16.37;11.13;;;4.40;69.40;4.00;97430.00;;;;5033719;28;20487;-80
2023/01/23 04:53:42;;;;;;;15.83;12.10;;;4.40;69.40;4.00;97434.00;;;;5031317;28;20867;-79
2023/01/23 04:56:20;;;;;;;16.57;11.63;;;4.40;69.40;4.10;97437.00;;;;5027900;28;20455;-79
2023/01/23 04:58:57;;;;;;;17.57;11.37;;;4.40;69.50;4.10;97436.00;;;;5035295;28;20451;-79
2023/01/23 05:01:30;;;;;;;14.83;11.23;;;4.40;69.80;4.10;97444.00;;;;5037788;28;20467;-81
2023/01/23 05:03:57;;;;;;;15.53;11.23;;;4.50;70.00;4.10;97443.00;;;;5033175;28;20546;-81
2023/01/23 05:06:26;;;;;;;15.07;11.60;;;4.40;70.00;4.10;97449.00;;;;5031632;28;20868;-77
2023/01/23 05:08:53;;;;;;;27.13;12.03;;;4.50;70.00;4.20;97441.00;;;;5020974;28;20448;-79
2023/01/23 05:11:23;;;;;;;16.27;13.00;;;4.50;70.10;4.20;97445.00;;;;5031976;28;20483;-81
2023/01/23 05:13:51;;;;;;;15.73;11.90;;;4.50;70.20;4.20;97441.00;;;;5031477;28;20274;-81
2023/01/23 05:16:18;;;;;;;17.27;12.33;;;4.50;70.10;4.20;97446.00;;;;5031093;28;20464;-79
2023/01/23 05:18:45;;;;;;;18.40;12.17;;;4.60;70.20;4.20;97456.00;;;;5029926;28;20483;-78
2023/01/23 05:21:32;;;;;;;17.50;11.90;;;4.60;70.20;4.20;97450.00;;;;5032166;28;20910;-79
2023/01/23 05:24:00;;;;;;;14.67;10.03;;;4.60;70.00;4.20;97453.00;;;;5033383;28;20495;-81
2023/01/23 05:26:34;;;;;;;13.23;10.47;;;4.60;70.00;4.30;97456.00;;;;5024356;28;20611;-80
2023/01/23 05:29:06;;;;;;;18.17;12.17;;;4.60;70.00;4.30;97460.00;;;;5032212;28;20444;-78
2023/01/23 05:31:48;;;;;;;13.80;10.03;;;4.60;70.00;4.30;97464.00;;;;5037271;28;20483;-79
2023/01/23 05:34:22;;;;;;;15.47;10.43;;;4.70;70.10;4.30;97461.00;;;;5028346;28;20437;-80
2023/01/23 05:36:51;;;;;;;15.03;10.47;;;4.70;70.10;4.30;97476.00;;;;5025570;28;20609;-79
2023/01/23 05:39:18;;;;;;;16.33;11.30;;;4.70;70.10;4.30;97474.00;;;;5031678;28;20491;-80
2023/01/23 05:41:45;;;;;;;15.47;11.23;;;4.70;70.10;4.30;97479.00;;;;5033226;28;20476;-78
2023/01/23 05:44:13;;;;;;;16.20;11.37;;;4.70;70.10;4.40;97478.00;;;;5031362;28;20864;-80
2023/01/23 05:46:40;;;;;;;16.70;11.33;;;4.70;69.70;4.40;97481.00;;;;5037101;28;20480;-80
2023/01/23 05:49:07;;;;;;;16.97;11.30;;;4.70;69.70;4.30;97475.00;;;;5032761;28;20448;-80
2023/01/23 05:51:35;;;;;;;15.77;10.77;;;4.70;69.60;4.30;97466.00;;;;5047451;28;20519;-78
2023/01/23 05:54:04;;;;;;;16.17;10.47;;;4.70;69.60;4.40;97477.00;;;;5032711;28;20535;-81
2023/01/23 05:56:31;;;;;;;18.13;11.23;;;4.70;69.70;4.40;97470.00;;;;5047583;28;20631;-80
2023/01/23 05:58:58;;;;;;;16.50;11.23;;;4.70;69.80;4.40;97482.00;;;;5035208;28;20471;-80
2023/01/23 06:01:25;;;;;;;14.43;10.10;;;4.70;70.00;4.40;97471.00;;;;5029436;28;20276;-79
2023/01/23 06:03:53;;;;;;;15.60;10.27;;;4.70;70.10;4.40;97467.00;;;;5027495;28;20205;-82
2023/01/23 06:06:20;;;;;;;18.23;10.63;;;4.80;70.20;4.40;97470.00;;;;5036283;28;20644;-78
2023/01/23 06:08:47;;;;;;;16.70;10.83;;;4.80;70.20;4.40;97466.00;;;;5033468;28;20737;-80
2023/01/23 06:11:15;;;;;;;16.27;10.53;;;4.80;70.20;4.50;97472.00;;;;5047093;28;20515;-81
2023/01/23 06:13:42;;;;;;;13.53;8.97;;;4.80;70.20;4.50;97472.00;;;;5030657;28;20236;-80
2023/01/23 06:16:10;;;;;;;13.90;9.60;;;4.80;70.10;4.50;97467.00;;;;5030555;28;20484;-79
2023/01/23 06:18:37;;;;;;;13.27;9.43;;;4.80;70.10;4.50;97468.00;;;;5033149;28;20193;-80
2023/01/23 06:21:05;;;;;;;11.83;8.40;;;4.80;70.10;4.50;97472.00;;;;5028621;28;20248;-80
2023/01/23 06:23:37;;;;;;;11.30;8.07;;;4.80;70.20;4.50;97469.00;;;;5032432;28;20232;-81
2023/01/23 06:26:07;;;;;;;11.73;8.17;;;4.90;70.10;4.60;97476.00;;;;5024254;28;20205;-79
2023/01/23 06:28:48;;;;;;;11.13;8.20;;;4.90;70.20;4.60;97473.00;;;;5033869;28;20448;-80
2023/01/23 06:31:21;;;;;;;12.00;7.73;;;4.90;70.30;4.70;97478.00;;;;5033571;28;20447;-80
2023/01/23 06:33:53;;;;;;;10.73;7.57;;;4.90;70.20;4.70;97478.00;;;;5032433;28;20503;-79
2023/01/23 06:36:20;;;;;;;9.27;6.53;;;4.90;70.20;4.80;97491.00;;;;5026992;28;20623;-80
2023/01/23 06:38:47;;;;;;;11.83;7.50;;;5.00;70.10;4.80;97482.00;;;;5045597;28;20475;-80
2023/01/23 06:41:15;;;;;;;11.90;7.77;;;5.00;70.20;4.80;97491.00;;;;5031217;28;20483;-78
2023/01/23 06:43:43;;;;;;;10.23;7.27;;;5.00;70.20;4.80;97479.00;;;;5035364;28;20474;-80
2023/01/23 06:46:12;;;;;;;9.33;6.77;;;5.00;70.20;4.90;97479.00;;;;5025815;28;20293;-80
2023/01/23 06:48:39;;;;;;;10.23;7.17;;;5.00;70.20;4.90;97480.00;;;;5034669;28;20223;-79
2023/01/23 06:51:06;;;;;;;11.17;7.83;;;5.00;70.20;4.90;97480.00;;;;5033541;28;20471;-79
2023/01/23 06:53:34;;;;;;;12.90;8.80;;;5.10;70.30;4.90;97476.00;;;;5034602;28;20236;-79
2023/01/23 06:56:02;;;;;;;11.43;7.37;;;5.10;70.20;4.90;97476.00;;;;5038901;28;20692;-80
2023/01/23 06:58:30;;;;;;;10.20;7.70;;;5.10;70.10;5.00;97486.00;;;;5020525;28;20202;-79
2023/01/23 07:00:58;;;;;;;9.30;7.60;;;5.10;70.10;5.00;97488.00;;;;5023674;28;20966;-79
2023/01/23 07:03:26;;;;;;;10.57;7.53;;;5.10;70.00;5.00;97487.00;;;;5023306;28;20453;-79
2023/01/23 07:05:53;;;;;;;12.07;8.03;;;5.20;70.00;5.00;97490.00;;;;5030607;28;20479;-81
2023/01/23 07:08:20;;;;;;;10.50;7.63;;;5.20;70.00;5.00;97495.00;;;;5027232;28;20229;-81
2023/01/23 07:10:49;;;;;;;11.23;7.73;;;5.20;70.00;5.00;97503.00;;;;5031702;28;20233;-81
2023/01/23 07:13:18;;;;;;;12.63;8.90;;;5.20;70.80;5.00;97495.00;;;;5026465;28;20577;-81
2023/01/23 07:15:47;;;;;;;12.70;8.27;;;5.20;70.00;5.00;97499.00;;;;5035989;28;20479;-81
2023/01/23 07:18:18;;;;;;;11.37;7.27;;;5.20;70.10;5.00;97510.00;;;;5035429;28;20482;-79
2023/01/23 07:20:46;;;;;;;13.20;8.93;;;5.20;70.80;5.00;97517.00;;;;5039655;28;20252;-81
2023/01/23 07:23:13;;;;;;;10.87;8.03;;;5.20;70.00;5.00;97529.00;;;;5036112;28;20280;-80
2023/01/23 07:25:40;;;;;;;12.10;8.03;;;5.20;70.00;5.00;97530.00;;;;5030636;28;20440;-81
2023/01/23 07:28:08;;;;;;;12.63;8.23;;;5.20;70.00;5.10;97529.00;;;;5030711;28;20257;-79
2023/01/23 07:30:35;;;;;;;14.30;8.57;;;5.20;70.00;5.10;97537.00;;;;5044593;28;20304;-78
2023/01/23 07:33:02;;;;;;;11.23;7.47;;;5.30;70.10;5.10;97538.00;;;;5037961;28;20232;-80
2023/01/23 07:35:31;;;;;;;12.17;8.10;;;5.30;70.30;5.10;97542.00;;;;5031832;28;20503;-79
2023/01/23 07:37:58;;;;;;;13.53;9.50;;;5.30;70.10;5.10;97538.00;;;;5027250;28;20484;-80
2023/01/23 07:40:25;;;;;;;14.10;8.57;;;5.30;70.10;5.10;97547.00;;;;5012556;28;20201;-80
2023/01/23 07:42:56;;;;;;;12.57;8.70;;;5.30;69.90;5.20;97540.00;;;;5031500;28;20200;-80
2023/01/23 07:45:24;;;;;;;10.47;7.83;;;5.30;70.00;5.20;97542.00;;;;5029053;28;20189;-79
2023/01/23 07:47:51;;;;;;;12.73;8.10;;;5.30;70.00;5.20;97534.00;;;;5029852;28;20254;-79
2023/01/23 07:50:21;;;;;;;12.63;8.30;;;5.30;70.00;5.20;97536.00;;;;5019212;28;20201;-80
2023/01/23 07:52:49;;;;;;;11.77;8.43;;;5.30;69.90;5.20;97535.00;;;;5024132;28;20225;-79
2023/01/23 07:55:18;;;;;;;12.87;8.47;;;5.40;70.00;5.20;97522.00;;;;5022101;28;20468;-79
2023/01/23 07:57:48;;;;;;;10.07;7.07;;;5.40;70.00;5.20;97530.00;;;;5013632;28;20244;-79
2023/01/23 08:00:25;;;;;;;16.43;8.23;;;5.40;70.00;5.20;97526.00;;;;5025581;28;20204;-79
2023/01/23 08:02:59;;;;;;;12.00;8.17;;;5.40;70.00;5.20;97531.00;;;;5027357;28;20440;-80
2023/01/23 08:05:29;;;;;;;11.20;7.47;;;5.40;69.90;5.20;97535.00;;;;5022055;28;20206;-79
2023/01/23 08:08:07;;;;;;;11.43;7.57;;;5.40;70.00;5.20;97531.00;;;;5030891;28;20209;-79
2023/01/23 08:10:39;;;;;;;13.07;8.37;;;5.40;70.00;5.20;97528.00;;;;5031418;28;20315;-79
2023/01/23 08:13:11;;;;;;;11.83;7.80;;;5.40;69.90;5.20;97531.00;;;;5026389;28;20221;-80
2023/01/23 08:15:47;;;;;;;12.30;8.17;;;5.40;69.90;5.30;97526.00;;;;5021865;28;20701;-80
2023/01/23 08:18:17;;;;;;;12.70;7.30;;;5.50;70.00;5.30;97528.00;;;;5018383;28;20197;-80
2023/01/23 08:21:00;;;;;;;11.90;7.93;;;5.50;69.90;5.30;97524.00;;;;5027518;28;20589;-79
2023/01/23 08:23:37;;;;;;;10.90;7.20;;;5.50;69.90;5.30;97547.00;;;;5023001;28;20216;-79
2023/01/23 08:26:16;;;;;;;11.90;8.63;;;5.50;69.90;5.30;97543.00;;;;5024263;28;20224;-80
2023/01/23 08:28:49;;;;;;;11.63;7.83;;;5.50;69.90;5.30;97545.00;;;;5018691;28;20229;-79
2023/01/23 08:31:18;;;;;;;11.80;8.17;;;5.50;70.00;5.40;97543.00;;;;5019731;28;20588;-78
2023/01/23 08:33:45;;;;;;;10.60;7.23;;;5.50;70.00;5.40;97545.00;;;;5030300;28;20283;-80
2023/01/23 08:36:14;;;;;;;11.33;7.47;;;5.60;70.60;5.40;97536.00;;;;5024121;28;20194;-80
2023/01/23 08:38:51;;;;;;;14.63;8.10;;;5.60;70.00;5.50;97545.00;;;;5032682;28;20193;-79
2023/01/23 08:41:18;;;;;;;12.33;8.70;;;5.60;70.00;5.50;97546.00;;;;5028889;28;20727;-79
2023/01/23 08:44:00;;;;;;;10.70;7.40;;;5.60;69.90;5.50;97539.00;;;;5018694;28;20228;-80
2023/01/23 08:46:33;;;;;;;12.17;7.47;;;5.70;70.00;5.50;97535.00;;;;5028929;28;20237;-80
2023/01/23 08:49:09;;;;;;;12.47;7.90;;;5.70;69.90;5.50;97536.00;;;;5035487;28;20221;-79
2023/01/23 08:51:42;;;;;;;10.67;7.40;;;5.70;70.00;5.60;97545.00;;;;5021997;28;20243;-79
2023/01/23 08:54:15;;;;;;;12.07;7.87;;;5.70;69.90;5.60;97540.00;;;;5028861;28;20617;-79
2023/01/23 08:56:48;;;;;;;12.47;7.83;;;5.70;69.90;5.60;97533.00;;;;5032297;28;20383;-79
2023/01/23 08:59:17;;;;;;;11.87;7.63;;;5.70;70.00;5.70;97531.00;;;;5026707;28;20265;-80
2023/01/23 09:01:47;;;;;;;12.20;7.73;;;5.80;70.10;5.80;97539.00;;;;5028613;28;20226;-79
2023/01/23 09:04:17;;;;;;;10.37;7.60;;;5.80;70.10;5.80;97541.00;;;;5028562;28;20267;-79
2023/01/23 09:09:29;;;;;;;9.97;7.23;;;5.90;70.10;5.90;97539.00;;;;5017891;28;20198;-80
2023/01/23 09:11:58;;;;;;;13.53;7.97;;;6.00;70.10;6.00;97538.00;;;;5022636;28;20265;-80
2023/01/23 09:14:31;;;;;;;11.67;7.60;;;6.00;70.10;6.00;97544.00;;;;5017524;28;20210;-79
2023/01/23 09:17:01;;;;;;;10.23;7.20;;;6.10;70.10;6.10;97555.00;;;;5025658;28;20208;-80
2023/01/23 09:19:34;;;;;;;12.67;7.47;;;6.10;70.10;6.20;97549.00;;;;5020752;28;20202;-79
2023/01/23 09:22:01;;;;;;;13.10;8.63;;;6.20;70.10;6.20;97541.00;;;;5014535;28;20256;-79
2023/01/23 09:24:36;;;;;;;11.60;7.47;;;6.20;70.00;6.30;97546.00;;;;5013955;28;20206;-80
2023/01/23 09:27:11;;;;;;;11.90;7.40;;;6.30;70.00;6.30;97551.00;;;;5015355;28;20606;-80
2023/01/23 09:29:41;;;;;;;11.70;7.30;;;6.30;70.00;6.40;97540.00;;;;5024486;28;20235;-79
2023/01/23 09:32:14;;;;;;;10.10;7.20;;;6.40;69.90;6.40;97546.00;;;;5028367;28;20249;-80
2023/01/23 09:34:53;;;;;;;10.80;7.60;;;6.40;69.70;6.50;97539.00;;;;5015588;28;20194;-80
2023/01/23 09:37:58;;;;;;;12.03;7.80;;;6.50;69.70;6.50;97555.00;;;;5015675;28;20205;-79
2023/01/23 09:40:29;;;;;;;9.03;7.07;;;6.60;69.80;6.60;97547.00;;;;5024214;28;20229;-78
2023/01/23 09:43:02;;;;;;;13.33;7.67;;;6.60;69.80;6.70;97543.00;;;;5022274;28;20228;-80
2023/01/23 09:46:00;;;;;;;13.00;7.60;;;6.60;69.60;6.70;97553.00;;;;5028783;28;20247;-80
2023/01/23 09:48:33;;;;;;;11.77;7.10;;;6.70;69.70;6.70;97531.00;;;;5031216;28;20228;-79
2023/01/23 09:51:17;;;;;;;10.97;7.50;;;6.70;69.70;6.80;97530.00;;;;5034063;28;20267;-79
2023/01/23 09:53:48;;;;;;;10.83;7.90;;;6.70;69.50;6.80;97528.00;;;;5027742;28;20222;-79
2023/01/23 09:56:30;;;;;;;10.53;7.60;;;6.80;69.50;6.90;97530.00;;;;5030939;28;20672;-80
2023/01/23 09:59:25;;;;;;;12.07;8.13;;;6.90;69.50;7.00;97535.00;;;;5024572;28;20213;-80
2023/01/23 10:02:04;;;;;;;10.17;7.13;;;6.90;69.40;7.00;97532.00;;;;5034683;28;20245;-80
2023/01/23 10:04:35;;;;;;;9.57;6.67;;;7.00;69.20;7.10;97540.00;;;;5028648;28;20205;-80
2023/01/23 10:07:37;;;;;;;10.37;7.10;;;7.00;69.20;7.10;97539.00;;;;5027233;28;20197;-81
2023/01/23 10:10:43;;;;;;;10.60;7.27;;;7.10;69.20;7.10;97530.00;;;;5029407;28;20918;-80
2023/01/23 10:13:19;;;;;;;11.10;7.13;;;7.10;69.10;7.20;97535.00;;;;5021465;28;20606;-81
2023/01/23 10:16:18;;;;;;;12.10;8.20;;;7.10;69.00;7.20;97536.00;;;;5027209;28;20542;-79
2023/01/23 10:18:57;;;;;;;10.20;7.03;;;7.20;68.70;7.30;97533.00;;;;5028277;28;20205;-80
2023/01/23 10:21:42;;;;;;;11.53;7.20;;;7.20;68.70;7.30;97534.00;;;;5027815;28;20222;-81
2023/01/23 10:24:42;;;;;;;11.87;7.70;;;7.20;68.70;7.30;97533.00;;;;5027800;28;20208;-80
2023/01/23 10:27:23;;;;;;;13.40;8.13;;;7.30;68.70;7.30;97525.00;;;;5025339;28;20213;-81
2023/01/23 10:30:05;;;;;;;10.70;7.90;;;7.30;68.50;7.30;97526.00;;;;5022494;28;20213;-80
2023/01/23 10:32:58;;;;;;;11.97;8.00;;;7.30;68.40;7.40;97524.00;;;;5022747;28;20225;-83
2023/01/23 10:35:35;;;;;;;8.60;7.20;;;7.40;68.50;7.40;97523.00;;;;5024394;28;20301;-81
2023/01/23 10:38:16;;;;;;;10.80;7.53;;;7.40;68.40;7.40;97518.00;;;;5026628;28;20666;-80
2023/01/23 10:43:32;;;;;;;12.30;8.00;;;7.40;68.10;7.30;97514.00;;;;5026873;28;20204;-80
2023/01/23 10:46:08;;;;;;;12.00;7.77;;;7.40;68.10;7.40;97503.00;;;;5031524;28;20229;-80
2023/01/23 10:48:49;;;;;;;11.23;7.67;;;7.40;68.00;7.40;97511.00;;;;5023908;28;20196;-81
2023/01/23 10:51:47;;;;;;;11.13;7.63;;;7.40;67.90;7.40;97503.00;;;;5022886;28;20222;-80
2023/01/23 10:54:28;;;;;;;10.00;7.90;;;7.50;68.00;7.40;97502.00;;;;5014259;28;20299;-82
2023/01/23 10:57:03;;;;;;;11.30;7.80;;;7.40;68.00;7.40;97496.00;;;;5015903;28;20284;-81
2023/01/23 10:59:40;;;;;;;12.20;7.70;;;7.50;68.00;7.50;97499.00;;;;5031914;28;20224;-81
2023/01/23 11:02:28;;;;;;;9.77;7.47;;;7.50;68.10;7.60;97501.00;;;;5024682;28;20221;-81
2023/01/23 11:05:03;;;;;;;10.73;7.63;;;7.50;68.10;7.60;97494.00;;;;5015628;28;20598;-82
2023/01/23 11:07:37;;;;;;;11.57;7.70;;;7.50;68.20;7.60;97498.00;;;;5026175;28;20200;-81
2023/01/23 11:10:24;;;;;;;10.90;7.77;;;7.60;68.10;7.70;97495.00;;;;5025730;28;20289;-81
2023/01/23 11:12:55;;;;;;;10.03;7.60;;;7.60;68.00;7.70;97494.00;;;;5024115;28;20206;-81
2023/01/23 11:15:25;;;;;;;10.87;7.67;;;7.70;68.10;7.80;97486.00;;;;5026775;28;20185;-80
2023/01/23 11:18:21;;;;;;;10.57;7.50;;;7.70;68.00;7.80;97478.00;;;;5027337;28;20193;-82
2023/01/23 11:20:56;;;;;;;9.90;7.70;;;7.70;67.90;7.80;97474.00;;;;5022436;28;20761;-80
2023/01/23 11:23:26;;;;;;;12.20;7.90;;;7.80;67.90;7.80;97470.00;;;;5018876;28;20202;-80
2023/01/23 11:26:07;;;;;;;12.60;8.20;;;7.80;67.90;7.80;97462.00;;;;5020786;28;20206;-80
2023/01/23 11:31:33;;;;;;;10.87;7.30;;;7.80;67.60;7.90;97455.00;;;;5029609;28;20303;-81
2023/01/23 11:34:14;;;;;;;9.40;7.27;;;7.80;67.80;7.90;97463.00;;;;5036936;28;20627;-80
2023/01/23 11:37:06;;;;;;;10.17;7.33;;;7.90;67.70;7.90;97448.00;;;;5023258;28;20205;-80
2023/01/23 11:40:02;;;;;;;11.37;7.77;;;7.90;67.60;8.00;97451.00;;;;5022948;28;20255;-81
2023/01/23 11:42:38;;;;;;;9.30;7.20;;;7.90;67.40;8.00;97451.00;;;;5024695;28;20219;-81
2023/01/23 11:45:51;;;;;;;12.13;7.83;;;7.90;67.60;8.00;97448.00;;;;5023099;28;20209;-80